sensor_id;sensor_type;location;lat;lon;timestamp;P1;durP1;ratioP1;P2;durP2;ratioP2
55732;SDS011;41637;52.364;9.910;2022-09-09T00:06:28;4.40;;;1.40;;
55732;SDS011;41637;52.364;9.910;2022-09-09T00:09:00;4.40;;;1.20;;
55732;SDS011;41637;52.364;9.910;2022-09-09T00:14:13;2.00;;;1.10;;
55732;SDS011;41637;52.364;9.910;2022-09-09T00:16:47;3.20;;;1.20;;
55732;SDS011;41637;52.364;9.910;2022-09-09T00:19:24;3.40;;;1.10;;
55732;SDS011;41637;52.364;9.910;2022-09-09T00:22:03;2.80;;;1.10;;
55732;SDS011;41637;52.364;9.910;2022-09-09T00:24:52;3.10;;;1.20;;
55732;SDS011;41637;52.364;9.910;2022-09-09T00:32:46;3.00;;;1.10;;
55732;SDS011;41637;52.364;9.910;2022-09-09T00:37:42;3.10;;;1.20;;
55732;SDS011;41637;52.364;9.910;2022-09-09T00:40:18;4.30;;;1.00;;
55732;SDS011;41637;52.364;9.910;2022-09-09T00:43:27;3.40;;;1.10;;
55732;SDS011;41637;52.364;9.910;2022-09-09T00:46:19;3.00;;;1.00;;
55732;SDS011;41637;52.364;9.910;2022-09-09T00:49:24;2.40;;;1.00;;
55732;SDS011;41637;52.364;9.910;2022-09-09T00:57:23;4.10;;;1.10;;
55732;SDS011;41637;52.364;9.910;2022-09-09T01:05:01;2.50;;;1.30;;
55732;SDS011;41637;52.364;9.910;2022-09-09T01:07:35;2.50;;;1.10;;
55732;SDS011;41637;52.364;9.910;2022-09-09T01:10:04;2.30;;;0.90;;
55732;SDS011;41637;52.364;9.910;2022-09-09T01:12:42;3.20;;;1.40;;
55732;SDS011;41637;52.364;9.910;2022-09-09T01:15:26;2.90;;;1.10;;
55732;SDS011;41637;52.364;9.910;2022-09-09T01:20:33;3.80;;;1.00;;
55732;SDS011;41637;52.364;9.910;2022-09-09T01:26:13;3.40;;;0.90;;
55732;SDS011;41637;52.364;9.910;2022-09-09T01:29:00;2.80;;;0.90;;
55732;SDS011;41637;52.364;9.910;2022-09-09T01:31:31;2.90;;;1.00;;
55732;SDS011;41637;52.364;9.910;2022-09-09T01:34:02;2.70;;;0.80;;
55732;SDS011;41637;52.364;9.910;2022-09-09T01:36:41;2.30;;;1.00;;
55732;SDS011;41637;52.364;9.910;2022-09-09T01:39:09;2.70;;;0.90;;
55732;SDS011;41637;52.364;9.910;2022-09-09T01:41:37;3.00;;;1.00;;
55732;SDS011;41637;52.364;9.910;2022-09-09T01:44:04;5.80;;;1.30;;
55732;SDS011;41637;52.364;9.910;2022-09-09T01:46:33;3.50;;;1.00;;
55732;SDS011;41637;52.364;9.910;2022-09-09T01:49:00;3.40;;;1.00;;
55732;SDS011;41637;52.364;9.910;2022-09-09T01:51:30;3.90;;;1.10;;
55732;SDS011;41637;52.364;9.910;2022-09-09T01:53:57;3.70;;;1.00;;
55732;SDS011;41637;52.364;9.910;2022-09-09T02:02:19;3.50;;;1.10;;
55732;SDS011;41637;52.364;9.910;2022-09-09T02:04:54;4.90;;;1.20;;
55732;SDS011;41637;52.364;9.910;2022-09-09T02:07:31;3.60;;;1.00;;
55732;SDS011;41637;52.364;9.910;2022-09-09T02:10:20;4.20;;;1.20;;
55732;SDS011;41637;52.364;9.910;2022-09-09T02:12:53;3.40;;;1.10;;
55732;SDS011;41637;52.364;9.910;2022-09-09T02:18:08;5.00;;;1.10;;
55732;SDS011;41637;52.364;9.910;2022-09-09T02:20:38;3.50;;;1.10;;
55732;SDS011;41637;52.364;9.910;2022-09-09T02:23:06;3.40;;;1.20;;
55732;SDS011;41637;52.364;9.910;2022-09-09T02:25:35;3.60;;;1.10;;
55732;SDS011;41637;52.364;9.910;2022-09-09T02:28:04;2.00;;;1.00;;
55732;SDS011;41637;52.364;9.910;2022-09-09T02:30:34;4.30;;;1.20;;
55732;SDS011;41637;52.364;9.910;2022-09-09T02:33:03;2.40;;;1.10;;
55732;SDS011;41637;52.364;9.910;2022-09-09T02:35:33;3.00;;;1.20;;
55732;SDS011;41637;52.364;9.910;2022-09-09T02:38:04;2.40;;;1.00;;
55732;SDS011;41637;52.364;9.910;2022-09-09T02:40:36;2.60;;;1.20;;
55732;SDS011;41637;52.364;9.910;2022-09-09T02:43:03;3.90;;;1.30;;
55732;SDS011;41637;52.364;9.910;2022-09-09T02:45:42;3.60;;;1.10;;
55732;SDS011;41637;52.364;9.910;2022-09-09T02:48:20;2.80;;;1.20;;
55732;SDS011;41637;52.364;9.910;2022-09-09T02:53:24;4.10;;;1.20;;
55732;SDS011;41637;52.364;9.910;2022-09-09T02:56:17;2.10;;;1.00;;
55732;SDS011;41637;52.364;9.910;2022-09-09T02:58:46;2.70;;;1.00;;
55732;SDS011;41637;52.364;9.910;2022-09-09T03:01:13;3.80;;;1.00;;
55732;SDS011;41637;52.364;9.910;2022-09-09T03:03:40;4.10;;;1.20;;
55732;SDS011;41637;52.364;9.910;2022-09-09T03:06:08;4.60;;;1.20;;
55732;SDS011;41637;52.364;9.910;2022-09-09T03:08:36;3.50;;;1.00;;
55732;SDS011;41637;52.364;9.910;2022-09-09T03:11:06;3.50;;;1.10;;
55732;SDS011;41637;52.364;9.910;2022-09-09T03:13:33;3.70;;;1.20;;
55732;SDS011;41637;52.364;9.910;2022-09-09T03:16:00;3.00;;;1.30;;
55732;SDS011;41637;52.364;9.910;2022-09-09T03:18:31;3.20;;;1.20;;
55732;SDS011;41637;52.364;9.910;2022-09-09T03:20:58;4.50;;;1.10;;
55732;SDS011;41637;52.364;9.910;2022-09-09T03:23:25;4.10;;;1.10;;
55732;SDS011;41637;52.364;9.910;2022-09-09T03:25:52;3.30;;;1.20;;
55732;SDS011;41637;52.364;9.910;2022-09-09T03:28:23;3.10;;;1.20;;
55732;SDS011;41637;52.364;9.910;2022-09-09T03:30:51;5.10;;;1.30;;
55732;SDS011;41637;52.364;9.910;2022-09-09T03:33:18;3.00;;;1.20;;
55732;SDS011;41637;52.364;9.910;2022-09-09T03:35:45;3.30;;;1.20;;
55732;SDS011;41637;52.364;9.910;2022-09-09T03:38:14;3.60;;;1.30;;
55732;SDS011;41637;52.364;9.910;2022-09-09T03:40:48;5.70;;;1.40;;
55732;SDS011;41637;52.364;9.910;2022-09-09T03:43:15;3.50;;;1.20;;
55732;SDS011;41637;52.364;9.910;2022-09-09T03:45:46;3.30;;;1.10;;
55732;SDS011;41637;52.364;9.910;2022-09-09T03:48:14;4.50;;;1.20;;
55732;SDS011;41637;52.364;9.910;2022-09-09T03:50:45;4.70;;;1.30;;
55732;SDS011;41637;52.364;9.910;2022-09-09T03:53:13;2.40;;;1.20;;
55732;SDS011;41637;52.364;9.910;2022-09-09T03:55:44;2.60;;;1.20;;
55732;SDS011;41637;52.364;9.910;2022-09-09T03:58:13;4.00;;;1.30;;
55732;SDS011;41637;52.364;9.910;2022-09-09T04:00:41;4.40;;;1.40;;
55732;SDS011;41637;52.364;9.910;2022-09-09T04:03:11;4.60;;;1.40;;
55732;SDS011;41637;52.364;9.910;2022-09-09T04:05:40;3.20;;;1.30;;
55732;SDS011;41637;52.364;9.910;2022-09-09T04:08:08;4.90;;;1.50;;
55732;SDS011;41637;52.364;9.910;2022-09-09T04:10:35;4.60;;;1.50;;
55732;SDS011;41637;52.364;9.910;2022-09-09T04:13:03;4.00;;;1.20;;
55732;SDS011;41637;52.364;9.910;2022-09-09T04:15:31;3.40;;;1.60;;
55732;SDS011;41637;52.364;9.910;2022-09-09T04:17:58;2.60;;;1.30;;
55732;SDS011;41637;52.364;9.910;2022-09-09T04:20:24;3.40;;;1.30;;
55732;SDS011;41637;52.364;9.910;2022-09-09T04:22:52;3.90;;;1.60;;
55732;SDS011;41637;52.364;9.910;2022-09-09T04:25:19;3.40;;;1.30;;
55732;SDS011;41637;52.364;9.910;2022-09-09T04:27:46;5.40;;;1.50;;
55732;SDS011;41637;52.364;9.910;2022-09-09T04:30:13;4.60;;;1.60;;
55732;SDS011;41637;52.364;9.910;2022-09-09T04:32:40;6.50;;;1.60;;
55732;SDS011;41637;52.364;9.910;2022-09-09T04:35:07;4.30;;;1.50;;
55732;SDS011;41637;52.364;9.910;2022-09-09T04:37:34;3.60;;;1.40;;
55732;SDS011;41637;52.364;9.910;2022-09-09T04:40:01;4.90;;;1.30;;
55732;SDS011;41637;52.364;9.910;2022-09-09T04:42:28;4.00;;;1.30;;
55732;SDS011;41637;52.364;9.910;2022-09-09T04:44:56;4.70;;;1.30;;
55732;SDS011;41637;52.364;9.910;2022-09-09T04:47:23;2.80;;;1.10;;
55732;SDS011;41637;52.364;9.910;2022-09-09T04:49:50;4.70;;;1.30;;
55732;SDS011;41637;52.364;9.910;2022-09-09T04:52:17;4.50;;;1.30;;
55732;SDS011;41637;52.364;9.910;2022-09-09T04:54:44;5.00;;;1.40;;
55732;SDS011;41637;52.364;9.910;2022-09-09T04:57:11;4.70;;;1.20;;
55732;SDS011;41637;52.364;9.910;2022-09-09T04:59:43;4.90;;;1.60;;
55732;SDS011;41637;52.364;9.910;2022-09-09T05:02:12;6.30;;;1.30;;
55732;SDS011;41637;52.364;9.910;2022-09-09T05:04:39;5.60;;;1.40;;
55732;SDS011;41637;52.364;9.910;2022-09-09T05:07:07;3.80;;;1.20;;
55732;SDS011;41637;52.364;9.910;2022-09-09T05:09:34;4.10;;;1.70;;
55732;SDS011;41637;52.364;9.910;2022-09-09T05:12:01;4.90;;;1.90;;
55732;SDS011;41637;52.364;9.910;2022-09-09T05:14:29;3.20;;;1.30;;
55732;SDS011;41637;52.364;9.910;2022-09-09T05:16:56;8.20;;;4.90;;
55732;SDS011;41637;52.364;9.910;2022-09-09T05:19:24;5.80;;;1.50;;
55732;SDS011;41637;52.364;9.910;2022-09-09T05:21:50;5.80;;;1.60;;
55732;SDS011;41637;52.364;9.910;2022-09-09T05:24:17;5.30;;;2.30;;
55732;SDS011;41637;52.364;9.910;2022-09-09T05:26:44;4.40;;;1.60;;
55732;SDS011;41637;52.364;9.910;2022-09-09T05:29:11;7.00;;;3.70;;
55732;SDS011;41637;52.364;9.910;2022-09-09T05:31:38;7.10;;;2.40;;
55732;SDS011;41637;52.364;9.910;2022-09-09T05:34:05;4.80;;;1.80;;
55732;SDS011;41637;52.364;9.910;2022-09-09T05:36:32;5.70;;;1.70;;
55732;SDS011;41637;52.364;9.910;2022-09-09T05:38:59;7.80;;;1.60;;
55732;SDS011;41637;52.364;9.910;2022-09-09T05:41:27;4.00;;;1.50;;
55732;SDS011;41637;52.364;9.910;2022-09-09T05:43:55;3.20;;;1.30;;
55732;SDS011;41637;52.364;9.910;2022-09-09T05:46:22;3.60;;;1.30;;
55732;SDS011;41637;52.364;9.910;2022-09-09T05:48:51;5.40;;;1.40;;
55732;SDS011;41637;52.364;9.910;2022-09-09T05:51:23;5.50;;;1.70;;
55732;SDS011;41637;52.364;9.910;2022-09-09T05:53:54;4.50;;;1.50;;
55732;SDS011;41637;52.364;9.910;2022-09-09T05:56:22;5.10;;;1.30;;
55732;SDS011;41637;52.364;9.910;2022-09-09T05:58:51;3.20;;;1.40;;
55732;SDS011;41637;52.364;9.910;2022-09-09T06:01:30;6.30;;;1.50;;
55732;SDS011;41637;52.364;9.910;2022-09-09T06:03:58;3.70;;;1.30;;
55732;SDS011;41637;52.364;9.910;2022-09-09T06:06:26;3.50;;;1.20;;
55732;SDS011;41637;52.364;9.910;2022-09-09T06:08:57;4.70;;;1.40;;
55732;SDS011;41637;52.364;9.910;2022-09-09T06:11:25;3.40;;;1.30;;
55732;SDS011;41637;52.364;9.910;2022-09-09T06:13:53;4.70;;;1.40;;
55732;SDS011;41637;52.364;9.910;2022-09-09T06:16:21;5.40;;;1.50;;
55732;SDS011;41637;52.364;9.910;2022-09-09T06:18:50;6.60;;;2.00;;
55732;SDS011;41637;52.364;9.910;2022-09-09T06:21:18;5.90;;;1.70;;
55732;SDS011;41637;52.364;9.910;2022-09-09T06:23:56;5.40;;;1.40;;
55732;SDS011;41637;52.364;9.910;2022-09-09T06:26:27;5.60;;;1.50;;
55732;SDS011;41637;52.364;9.910;2022-09-09T06:29:02;4.60;;;1.60;;
55732;SDS011;41637;52.364;9.910;2022-09-09T06:31:31;6.80;;;1.90;;
55732;SDS011;41637;52.364;9.910;2022-09-09T06:34:00;4.90;;;1.70;;
55732;SDS011;41637;52.364;9.910;2022-09-09T06:36:29;6.10;;;1.90;;
55732;SDS011;41637;52.364;9.910;2022-09-09T06:38:57;5.10;;;1.70;;
55732;SDS011;41637;52.364;9.910;2022-09-09T06:41:26;6.10;;;1.70;;
55732;SDS011;41637;52.364;9.910;2022-09-09T06:43:54;6.20;;;1.40;;
55732;SDS011;41637;52.364;9.910;2022-09-09T06:46:30;5.50;;;1.60;;
55732;SDS011;41637;52.364;9.910;2022-09-09T06:48:59;4.10;;;1.30;;
55732;SDS011;41637;52.364;9.910;2022-09-09T06:51:27;4.80;;;1.40;;
55732;SDS011;41637;52.364;9.910;2022-09-09T06:54:00;3.70;;;1.40;;
55732;SDS011;41637;52.364;9.910;2022-09-09T06:56:29;5.50;;;1.30;;
55732;SDS011;41637;52.364;9.910;2022-09-09T06:58:58;5.20;;;1.10;;
55732;SDS011;41637;52.364;9.910;2022-09-09T07:01:34;4.70;;;1.30;;
55732;SDS011;41637;52.364;9.910;2022-09-09T07:04:04;3.20;;;1.20;;
55732;SDS011;41637;52.364;9.910;2022-09-09T07:06:34;3.80;;;1.50;;
55732;SDS011;41637;52.364;9.910;2022-09-09T07:09:04;4.20;;;1.20;;
55732;SDS011;41637;52.364;9.910;2022-09-09T07:11:33;4.60;;;1.30;;
55732;SDS011;41637;52.364;9.910;2022-09-09T07:14:03;3.80;;;1.50;;
55732;SDS011;41637;52.364;9.910;2022-09-09T07:16:30;3.20;;;1.30;;
55732;SDS011;41637;52.364;9.910;2022-09-09T07:18:59;3.30;;;1.10;;
55732;SDS011;41637;52.364;9.910;2022-09-09T07:21:26;4.40;;;1.20;;
55732;SDS011;41637;52.364;9.910;2022-09-09T07:23:54;3.50;;;1.30;;
55732;SDS011;41637;52.364;9.910;2022-09-09T07:26:23;4.60;;;1.40;;
55732;SDS011;41637;52.364;9.910;2022-09-09T07:28:51;5.70;;;1.50;;
55732;SDS011;41637;52.364;9.910;2022-09-09T07:31:20;5.90;;;1.50;;
55732;SDS011;41637;52.364;9.910;2022-09-09T07:33:58;4.60;;;1.40;;
55732;SDS011;41637;52.364;9.910;2022-09-09T07:36:30;3.50;;;1.30;;
55732;SDS011;41637;52.364;9.910;2022-09-09T07:39:03;3.10;;;1.10;;
55732;SDS011;41637;52.364;9.910;2022-09-09T07:44:04;5.80;;;1.60;;
55732;SDS011;41637;52.364;9.910;2022-09-09T07:46:35;3.40;;;1.10;;
55732;SDS011;41637;52.364;9.910;2022-09-09T07:49:02;3.80;;;1.30;;
55732;SDS011;41637;52.364;9.910;2022-09-09T07:51:34;4.90;;;1.20;;
55732;SDS011;41637;52.364;9.910;2022-09-09T07:54:04;3.70;;;1.10;;
55732;SDS011;41637;52.364;9.910;2022-09-09T07:56:32;5.20;;;1.30;;
55732;SDS011;41637;52.364;9.910;2022-09-09T07:58:59;6.00;;;1.30;;
55732;SDS011;41637;52.364;9.910;2022-09-09T08:03:57;3.30;;;1.10;;
55732;SDS011;41637;52.364;9.910;2022-09-09T08:06:29;4.80;;;1.10;;
55732;SDS011;41637;52.364;9.910;2022-09-09T08:09:16;4.60;;;1.20;;
55732;SDS011;41637;52.364;9.910;2022-09-09T08:11:43;2.90;;;0.90;;
55732;SDS011;41637;52.364;9.910;2022-09-09T08:14:10;4.00;;;1.10;;
55732;SDS011;41637;52.364;9.910;2022-09-09T08:16:42;3.80;;;1.00;;
55732;SDS011;41637;52.364;9.910;2022-09-09T08:19:11;3.70;;;1.10;;
55732;SDS011;41637;52.364;9.910;2022-09-09T08:21:39;3.40;;;0.90;;
55732;SDS011;41637;52.364;9.910;2022-09-09T08:24:07;4.30;;;1.10;;
55732;SDS011;41637;52.364;9.910;2022-09-09T08:26:37;2.30;;;0.90;;
55732;SDS011;41637;52.364;9.910;2022-09-09T08:29:06;4.30;;;0.90;;
55732;SDS011;41637;52.364;9.910;2022-09-09T08:31:34;4.60;;;1.30;;
55732;SDS011;41637;52.364;9.910;2022-09-09T08:34:05;3.80;;;1.10;;
55732;SDS011;41637;52.364;9.910;2022-09-09T08:36:38;4.50;;;1.10;;
55732;SDS011;41637;52.364;9.910;2022-09-09T08:39:09;3.90;;;0.90;;
55732;SDS011;41637;52.364;9.910;2022-09-09T08:52:16;2.90;;;0.70;;
55732;SDS011;41637;52.364;9.910;2022-09-09T08:54:48;2.20;;;0.60;;
55732;SDS011;41637;52.364;9.910;2022-09-09T08:57:19;3.40;;;0.90;;
55732;SDS011;41637;52.364;9.910;2022-09-09T08:59:53;4.60;;;1.20;;
55732;SDS011;41637;52.364;9.910;2022-09-09T09:02:25;3.90;;;1.10;;
55732;SDS011;41637;52.364;9.910;2022-09-09T09:10:45;5.00;;;1.00;;
55732;SDS011;41637;52.364;9.910;2022-09-09T09:13:20;5.60;;;1.00;;
55732;SDS011;41637;52.364;9.910;2022-09-09T09:15:53;4.20;;;1.10;;
55732;SDS011;41637;52.364;9.910;2022-09-09T09:18:25;4.70;;;1.70;;
55732;SDS011;41637;52.364;9.910;2022-09-09T09:23:34;3.80;;;0.90;;
55732;SDS011;41637;52.364;9.910;2022-09-09T09:26:09;4.30;;;1.10;;
55732;SDS011;41637;52.364;9.910;2022-09-09T09:28:39;2.70;;;0.80;;
55732;SDS011;41637;52.364;9.910;2022-09-09T09:31:09;4.70;;;0.80;;
55732;SDS011;41637;52.364;9.910;2022-09-09T09:33:45;5.60;;;1.30;;
55732;SDS011;41637;52.364;9.910;2022-09-09T09:36:16;5.10;;;1.20;;
55732;SDS011;41637;52.364;9.910;2022-09-09T09:38:56;3.50;;;0.80;;
55732;SDS011;41637;52.364;9.910;2022-09-09T09:41:46;4.70;;;1.00;;
55732;SDS011;41637;52.364;9.910;2022-09-09T09:44:47;3.10;;;0.80;;
55732;SDS011;41637;52.364;9.910;2022-09-09T09:49:53;3.70;;;0.90;;
55732;SDS011;41637;52.364;9.910;2022-09-09T09:52:34;4.50;;;1.00;;
55732;SDS011;41637;52.364;9.910;2022-09-09T09:55:03;2.90;;;0.90;;
55732;SDS011;41637;52.364;9.910;2022-09-09T09:57:38;4.50;;;1.10;;
55732;SDS011;41637;52.364;9.910;2022-09-09T10:00:18;3.40;;;0.90;;
55732;SDS011;41637;52.364;9.910;2022-09-09T10:02:48;4.30;;;0.80;;
55732;SDS011;41637;52.364;9.910;2022-09-09T10:05:23;4.00;;;1.00;;
55732;SDS011;41637;52.364;9.910;2022-09-09T10:16:06;3.40;;;0.80;;
55732;SDS011;41637;52.364;9.910;2022-09-09T10:19:00;3.80;;;0.80;;
55732;SDS011;41637;52.364;9.910;2022-09-09T10:26:48;5.50;;;1.40;;
55732;SDS011;41637;52.364;9.910;2022-09-09T10:40:23;5.10;;;1.10;;
55732;SDS011;41637;52.364;9.910;2022-09-09T10:42:53;3.30;;;0.90;;
55732;SDS011;41637;52.364;9.910;2022-09-09T10:48:38;3.70;;;0.90;;
55732;SDS011;41637;52.364;9.910;2022-09-09T10:53:53;5.30;;;1.00;;
55732;SDS011;41637;52.364;9.910;2022-09-09T10:56:39;4.80;;;1.10;;
55732;SDS011;41637;52.364;9.910;2022-09-09T10:59:20;4.70;;;0.90;;
55732;SDS011;41637;52.364;9.910;2022-09-09T11:02:26;6.20;;;1.20;;
55732;SDS011;41637;52.364;9.910;2022-09-09T11:08:05;4.20;;;1.30;;
55732;SDS011;41637;52.364;9.910;2022-09-09T11:14:01;2.90;;;0.90;;
55732;SDS011;41637;52.364;9.910;2022-09-09T11:21:47;4.40;;;0.90;;
55732;SDS011;41637;52.364;9.910;2022-09-09T11:24:21;3.00;;;0.80;;
55732;SDS011;41637;52.364;9.910;2022-09-09T11:27:02;2.90;;;0.80;;
55732;SDS011;41637;52.364;9.910;2022-09-09T11:37:41;3.20;;;0.80;;
55732;SDS011;41637;52.364;9.910;2022-09-09T11:40:24;2.40;;;0.80;;
55732;SDS011;41637;52.364;9.910;2022-09-09T11:45:32;3.30;;;0.80;;
55732;SDS011;41637;52.364;9.910;2022-09-09T11:48:02;1.60;;;0.40;;
55732;SDS011;41637;52.364;9.910;2022-09-09T11:50:35;2.90;;;0.70;;
55732;SDS011;41637;52.364;9.910;2022-09-09T11:55:40;3.70;;;0.60;;
55732;SDS011;41637;52.364;9.910;2022-09-09T12:00:41;3.50;;;0.70;;
55732;SDS011;41637;52.364;9.910;2022-09-09T12:06:20;3.20;;;0.80;;
55732;SDS011;41637;52.364;9.910;2022-09-09T12:08:56;3.70;;;0.80;;
55732;SDS011;41637;52.364;9.910;2022-09-09T12:11:32;2.20;;;0.60;;
55732;SDS011;41637;52.364;9.910;2022-09-09T12:14:01;4.30;;;0.60;;
55732;SDS011;41637;52.364;9.910;2022-09-09T12:16:30;1.80;;;0.40;;
55732;SDS011;41637;52.364;9.910;2022-09-09T12:19:05;3.30;;;0.60;;
55732;SDS011;41637;52.364;9.910;2022-09-09T12:24:12;1.90;;;0.50;;
55732;SDS011;41637;52.364;9.910;2022-09-09T12:26:55;2.00;;;0.60;;
55732;SDS011;41637;52.364;9.910;2022-09-09T12:30:14;2.50;;;0.60;;
55732;SDS011;41637;52.364;9.910;2022-09-09T12:32:33;3.60;;;0.70;;
55732;SDS011;41637;52.364;9.910;2022-09-09T12:35:08;2.60;;;0.60;;
55732;SDS011;41637;52.364;9.910;2022-09-09T12:42:45;2.00;;;0.50;;
55732;SDS011;41637;52.364;9.910;2022-09-09T12:45:19;2.70;;;0.70;;
55732;SDS011;41637;52.364;9.910;2022-09-09T12:50:22;1.90;;;0.50;;
55732;SDS011;41637;52.364;9.910;2022-09-09T12:52:55;2.30;;;0.40;;
55732;SDS011;41637;52.364;9.910;2022-09-09T12:55:27;1.90;;;0.50;;
55732;SDS011;41637;52.364;9.910;2022-09-09T12:57:56;2.60;;;0.60;;
55732;SDS011;41637;52.364;9.910;2022-09-09T13:00:25;1.90;;;0.50;;
55732;SDS011;41637;52.364;9.910;2022-09-09T13:02:57;3.70;;;0.80;;
55732;SDS011;41637;52.364;9.910;2022-09-09T13:05:33;2.30;;;0.60;;
55732;SDS011;41637;52.364;9.910;2022-09-09T13:08:02;1.40;;;0.40;;
55732;SDS011;41637;52.364;9.910;2022-09-09T13:10:31;1.60;;;0.40;;
55732;SDS011;41637;52.364;9.910;2022-09-09T13:13:37;2.80;;;0.60;;
55732;SDS011;41637;52.364;9.910;2022-09-09T13:16:15;2.40;;;0.50;;
55732;SDS011;41637;52.364;9.910;2022-09-09T13:18:46;2.10;;;0.40;;
55732;SDS011;41637;52.364;9.910;2022-09-09T13:21:13;1.40;;;0.40;;
55732;SDS011;41637;52.364;9.910;2022-09-09T13:23:40;1.90;;;0.50;;
55732;SDS011;41637;52.364;9.910;2022-09-09T13:26:21;1.40;;;0.50;;
55732;SDS011;41637;52.364;9.910;2022-09-09T13:28:55;2.20;;;0.80;;
55732;SDS011;41637;52.364;9.910;2022-09-09T13:31:40;2.00;;;0.30;;
55732;SDS011;41637;52.364;9.910;2022-09-09T13:34:10;3.10;;;0.50;;
55732;SDS011;41637;52.364;9.910;2022-09-09T13:36:54;3.20;;;0.50;;
55732;SDS011;41637;52.364;9.910;2022-09-09T13:39:28;1.50;;;0.40;;
55732;SDS011;41637;52.364;9.910;2022-09-09T13:41:55;2.00;;;0.50;;
55732;SDS011;41637;52.364;9.910;2022-09-09T13:44:39;1.80;;;0.50;;
55732;SDS011;41637;52.364;9.910;2022-09-09T13:47:20;3.40;;;1.80;;
55732;SDS011;41637;52.364;9.910;2022-09-09T13:49:56;1.40;;;0.40;;
55732;SDS011;41637;52.364;9.910;2022-09-09T13:52:23;1.70;;;0.40;;
55732;SDS011;41637;52.364;9.910;2022-09-09T13:54:50;3.00;;;0.60;;
55732;SDS011;41637;52.364;9.910;2022-09-09T13:57:18;2.70;;;0.70;;
55732;SDS011;41637;52.364;9.910;2022-09-09T13:59:47;2.80;;;0.80;;
55732;SDS011;41637;52.364;9.910;2022-09-09T14:02:31;2.60;;;0.60;;
55732;SDS011;41637;52.364;9.910;2022-09-09T14:04:59;2.30;;;0.60;;
55732;SDS011;41637;52.364;9.910;2022-09-09T14:07:26;3.40;;;0.50;;
55732;SDS011;41637;52.364;9.910;2022-09-09T14:09:53;2.00;;;0.50;;
55732;SDS011;41637;52.364;9.910;2022-09-09T14:12:19;4.70;;;0.60;;
55732;SDS011;41637;52.364;9.910;2022-09-09T14:14:46;3.90;;;0.50;;
55732;SDS011;41637;52.364;9.910;2022-09-09T14:17:13;3.50;;;0.70;;
55732;SDS011;41637;52.364;9.910;2022-09-09T14:19:41;2.60;;;0.50;;
55732;SDS011;41637;52.364;9.910;2022-09-09T14:22:08;2.30;;;0.50;;
55732;SDS011;41637;52.364;9.910;2022-09-09T14:24:35;1.70;;;0.50;;
55732;SDS011;41637;52.364;9.910;2022-09-09T14:27:02;1.80;;;0.40;;
55732;SDS011;41637;52.364;9.910;2022-09-09T14:29:29;1.70;;;0.60;;
55732;SDS011;41637;52.364;9.910;2022-09-09T14:31:55;3.00;;;0.60;;
55732;SDS011;41637;52.364;9.910;2022-09-09T14:34:22;3.40;;;0.60;;
55732;SDS011;41637;52.364;9.910;2022-09-09T14:36:48;1.90;;;0.60;;
55732;SDS011;41637;52.364;9.910;2022-09-09T14:39:15;1.40;;;0.40;;
55732;SDS011;41637;52.364;9.910;2022-09-09T14:41:42;2.50;;;0.60;;
55732;SDS011;41637;52.364;9.910;2022-09-09T14:44:09;1.80;;;0.60;;
55732;SDS011;41637;52.364;9.910;2022-09-09T14:46:36;1.80;;;0.50;;
55732;SDS011;41637;52.364;9.910;2022-09-09T14:49:02;2.90;;;0.50;;
55732;SDS011;41637;52.364;9.910;2022-09-09T14:51:29;3.50;;;0.70;;
55732;SDS011;41637;52.364;9.910;2022-09-09T14:53:58;4.00;;;0.60;;
55732;SDS011;41637;52.364;9.910;2022-09-09T14:56:26;3.70;;;0.70;;
55732;SDS011;41637;52.364;9.910;2022-09-09T14:58:56;2.40;;;0.60;;
55732;SDS011;41637;52.364;9.910;2022-09-09T15:01:24;2.70;;;0.60;;
55732;SDS011;41637;52.364;9.910;2022-09-09T15:03:56;1.80;;;0.70;;
55732;SDS011;41637;52.364;9.910;2022-09-09T15:06:28;3.60;;;0.70;;
55732;SDS011;41637;52.364;9.910;2022-09-09T15:08:56;1.90;;;0.60;;
55732;SDS011;41637;52.364;9.910;2022-09-09T15:11:25;2.40;;;0.70;;
55732;SDS011;41637;52.364;9.910;2022-09-09T15:13:54;2.10;;;0.60;;
55732;SDS011;41637;52.364;9.910;2022-09-09T15:16:22;2.80;;;0.70;;
55732;SDS011;41637;52.364;9.910;2022-09-09T15:18:51;2.60;;;0.50;;
55732;SDS011;41637;52.364;9.910;2022-09-09T15:21:21;2.10;;;0.60;;
55732;SDS011;41637;52.364;9.910;2022-09-09T15:23:49;2.80;;;0.70;;
55732;SDS011;41637;52.364;9.910;2022-09-09T15:26:16;2.60;;;0.80;;
55732;SDS011;41637;52.364;9.910;2022-09-09T15:28:44;2.20;;;0.70;;
55732;SDS011;41637;52.364;9.910;2022-09-09T15:31:14;2.80;;;0.70;;
55732;SDS011;41637;52.364;9.910;2022-09-09T15:33:52;2.80;;;0.60;;
55732;SDS011;41637;52.364;9.910;2022-09-09T15:36:27;3.30;;;0.80;;
55732;SDS011;41637;52.364;9.910;2022-09-09T15:38:54;2.50;;;0.60;;
55732;SDS011;41637;52.364;9.910;2022-09-09T15:41:21;2.80;;;0.50;;
55732;SDS011;41637;52.364;9.910;2022-09-09T15:43:49;2.40;;;0.60;;
55732;SDS011;41637;52.364;9.910;2022-09-09T15:49:08;3.50;;;0.90;;
55732;SDS011;41637;52.364;9.910;2022-09-09T15:51:41;2.50;;;0.60;;
55732;SDS011;41637;52.364;9.910;2022-09-09T15:54:11;2.30;;;0.60;;
55732;SDS011;41637;52.364;9.910;2022-09-09T15:56:40;2.20;;;0.60;;
55732;SDS011;41637;52.364;9.910;2022-09-09T15:59:08;3.10;;;0.70;;
55732;SDS011;41637;52.364;9.910;2022-09-09T16:01:35;3.70;;;0.90;;
55732;SDS011;41637;52.364;9.910;2022-09-09T16:04:02;2.90;;;0.70;;
55732;SDS011;41637;52.364;9.910;2022-09-09T16:06:29;2.30;;;0.60;;
55732;SDS011;41637;52.364;9.910;2022-09-09T16:08:57;3.60;;;0.80;;
55732;SDS011;41637;52.364;9.910;2022-09-09T16:11:26;2.10;;;0.70;;
55732;SDS011;41637;52.364;9.910;2022-09-09T16:13:54;2.10;;;0.70;;
55732;SDS011;41637;52.364;9.910;2022-09-09T16:16:22;2.30;;;0.60;;
55732;SDS011;41637;52.364;9.910;2022-09-09T16:18:52;2.70;;;0.70;;
55732;SDS011;41637;52.364;9.910;2022-09-09T16:21:31;6.10;;;0.70;;
55732;SDS011;41637;52.364;9.910;2022-09-09T16:24:01;2.10;;;0.50;;
55732;SDS011;41637;52.364;9.910;2022-09-09T16:26:29;2.50;;;0.70;;
55732;SDS011;41637;52.364;9.910;2022-09-09T16:28:57;2.30;;;0.60;;
55732;SDS011;41637;52.364;9.910;2022-09-09T16:31:27;3.60;;;0.60;;
55732;SDS011;41637;52.364;9.910;2022-09-09T16:33:55;2.70;;;0.60;;
55732;SDS011;41637;52.364;9.910;2022-09-09T16:36:23;2.70;;;1.00;;
55732;SDS011;41637;52.364;9.910;2022-09-09T16:38:58;1.90;;;0.60;;
55732;SDS011;41637;52.364;9.910;2022-09-09T16:41:26;1.80;;;0.50;;
55732;SDS011;41637;52.364;9.910;2022-09-09T16:43:59;2.00;;;0.70;;
55732;SDS011;41637;52.364;9.910;2022-09-09T16:46:28;2.70;;;0.60;;
55732;SDS011;41637;52.364;9.910;2022-09-09T16:48:57;2.40;;;0.60;;
55732;SDS011;41637;52.364;9.910;2022-09-09T16:51:26;3.60;;;0.90;;
55732;SDS011;41637;52.364;9.910;2022-09-09T16:53:59;3.60;;;1.00;;
55732;SDS011;41637;52.364;9.910;2022-09-09T16:56:28;3.10;;;0.70;;
55732;SDS011;41637;52.364;9.910;2022-09-09T16:58:57;3.20;;;1.00;;
55732;SDS011;41637;52.364;9.910;2022-09-09T17:01:26;4.10;;;1.10;;
55732;SDS011;41637;52.364;9.910;2022-09-09T17:03:55;2.50;;;0.70;;
55732;SDS011;41637;52.364;9.910;2022-09-09T17:06:27;3.00;;;0.90;;
55732;SDS011;41637;52.364;9.910;2022-09-09T17:08:59;3.50;;;0.90;;
55732;SDS011;41637;52.364;9.910;2022-09-09T17:11:27;2.80;;;0.80;;
55732;SDS011;41637;52.364;9.910;2022-09-09T17:13:55;3.90;;;1.00;;
55732;SDS011;41637;52.364;9.910;2022-09-09T17:16:24;4.90;;;1.10;;
55732;SDS011;41637;52.364;9.910;2022-09-09T17:18:53;3.80;;;1.00;;
55732;SDS011;41637;52.364;9.910;2022-09-09T17:21:22;2.80;;;0.90;;
55732;SDS011;41637;52.364;9.910;2022-09-09T17:23:52;4.20;;;1.50;;
55732;SDS011;41637;52.364;9.910;2022-09-09T17:26:21;4.80;;;1.70;;
55732;SDS011;41637;52.364;9.910;2022-09-09T17:28:49;3.50;;;1.30;;
55732;SDS011;41637;52.364;9.910;2022-09-09T17:31:19;3.80;;;1.10;;
55732;SDS011;41637;52.364;9.910;2022-09-09T17:33:46;4.00;;;1.00;;
55732;SDS011;41637;52.364;9.910;2022-09-09T17:36:17;4.50;;;0.90;;